VTPH/HHQ METAR and TAF weather

Enter ICAO airport designator
Station Type Date Time Source
VTPH METAR 2018/12/13 23:00 UTC NOAA

VTPH 132300Z 34007KT 290V030 9000 NSC 24/18 Q1013 NOSIG


Station Type Date Time Source
VTPH Decoded METAR 2018/12/13 23:00 UTC NOAA

Hua Hin, Thailand (VTPH) 12-35N 099-57E 6M
Dec 13, 2018 - 06:00 PM EST / 2018.12.13 2300 UTC
Wind: from the NNW (340 degrees) at 8 MPH (7 KT) (direction variable):0
Visibility: 5 mile(s):0
Temperature: 75 F (24 C)
Dew Point: 64 F (18 C)
Relative Humidity: 69%
Pressure (altimeter): 29.91 in. Hg (1013 hPa)
ob: VTPH 132300Z 34007KT 290V030 9000 NSC 24/18 Q1013 NOSIG
cycle: 23

Station Type Date Time Source
VTPH TAF 2018/12/13 18:00 UTC NOAA

TAF VTPH 131700Z 1318/1418 02008KT 9000 FEW030


Example: see airport list